CWYO2: Chewey Road

                                SHEF ID:       CWYO2     Illinois River at Chewey, OK
STATION TYPE:
Regulating: Stage = 12.00, Flow = 13730

PRECIP STAGE STAGE(2) RIV-FLOW BAT-LOAD
in ft ft cfs volt
Ccp-Rev Ccp-Rev Ccp-Rev Ccp-Rev Ccp-Rev
(America/Chicago)
04/26 00:00 0.00 6.11 6.08 2912 12.45
04/26 01:00 0.00 6.13 6.11 2934 12.44
04/26 02:00 0.00 6.16 6.13 2968 12.44
04/26 03:00 0.00 6.21 6.19 3026 12.42
04/26 04:00 0.00 6.42 6.39 3273 12.42
04/26 05:00 0.00 6.68 6.65 3595 12.42
04/26 06:00 0.00 6.80 6.77 3750 12.40
04/26 07:00 0.00 6.90 6.88 3881 12.40
04/26 08:00 0.00 7.03 6.96 4056 12.42
04/26 09:00 0.00 7.20 7.16 4291 12.44
04/26 10:00 0.00 7.36 7.32 4519 12.47
04/26 11:00 0.00 7.44 7.38 4635 12.54
04/26 12:00 0.00 7.47 7.42 4679 12.71
04/26 13:00 0.00 7.55 7.47 4798 12.76
04/26 14:00 0.00 7.68 7.64 4995 12.66
04/26 15:00 0.00 7.93 7.87 5385 12.70
04/26 16:00 0.00 8.18 8.12 5793 12.66
04/26 17:00 0.00 8.42 8.29 6199 12.63
04/26 18:00 0.00 8.56 8.47 6444 12.61
04/26 19:00 0.00 8.72 8.60 6730 12.54
04/26 20:00 0.00 8.69 8.55 6676 12.52
04/26 21:00 0.00 8.60 8.47 6515 12.50
04/26 22:00 0.00 8.45 8.28 6251 12.48
04/26 23:00 0.00 8.19 8.07 5809 12.46
Data processed at Mon 27Apr2026 04:29 GMT

NOTICE: If you are parsing this page

Please convert to using our Data API. Starting early 2026 we will be migrating to: https://water.usace.army.mil with modern pages rendered in JavaScript. When this migration completes you will no longer be able to scrape this page! CWMSDataAPI (CDA)

Timeseries IDs (TSIDs)

TSIDs used from left to right in the data table
CHEW.Precip-Inc.Total.1Hour.1Hour.Ccp-Rev
CHEW.Stage.Inst.1Hour.0.Ccp-Rev
CHEW.Stage-Alt.Inst.1Hour.0.Ccp-Rev
CHEW.Flow.Inst.1Hour.0.Ccp-Rev
CHEW.Volt-Battery Load.Inst.1Hour.0.Ccp-Rev

                            

All information presented herein is the property of the government of the United States of America and may be revised or deleted at any time without prior notice. Dissemination of this information without the expressed written consent of the Public Affairs Office, Tulsa District U.S. Army Corps of Engineers is strictly prohibited. These data are gathered electronically and, as presented, have NOT undergone any form of quality control. These data are NOT guaranteed to be valid or correct.